sensor_id;sensor_type;location;lat;lon;timestamp;P1;durP1;ratioP1;P2;durP2;ratioP2
11094;SDS011;5601;44.490;11.400;2022-09-04T06:21:03;9.87;;;6.87;;
11094;SDS011;5601;44.490;11.400;2022-09-04T06:23:43;9.53;;;6.77;;
11094;SDS011;5601;44.490;11.400;2022-09-04T06:29:33;10.03;;;7.30;;
11094;SDS011;5601;44.490;11.400;2022-09-04T06:32:14;14.68;;;7.63;;
11094;SDS011;5601;44.490;11.400;2022-09-04T06:35:01;12.80;;;7.88;;
11094;SDS011;5601;44.490;11.400;2022-09-04T06:37:45;11.52;;;8.02;;
11094;SDS011;5601;44.490;11.400;2022-09-04T06:40:33;11.85;;;8.57;;
11094;SDS011;5601;44.490;11.400;2022-09-04T06:43:18;12.02;;;8.40;;
11094;SDS011;5601;44.490;11.400;2022-09-04T06:45:55;11.13;;;8.65;;
11094;SDS011;5601;44.490;11.400;2022-09-04T06:48:37;10.05;;;8.38;;
11094;SDS011;5601;44.490;11.400;2022-09-04T06:51:18;9.82;;;8.05;;
11094;SDS011;5601;44.490;11.400;2022-09-04T06:54:00;9.75;;;7.72;;
11094;SDS011;5601;44.490;11.400;2022-09-04T06:56:38;10.40;;;8.70;;
11094;SDS011;5601;44.490;11.400;2022-09-04T06:59:25;9.95;;;7.50;;
11094;SDS011;5601;44.490;11.400;2022-09-04T07:02:13;8.27;;;7.25;;
11094;SDS011;5601;44.490;11.400;2022-09-04T07:04:53;9.45;;;6.80;;
11094;SDS011;5601;44.490;11.400;2022-09-04T07:07:28;7.38;;;6.38;;
11094;SDS011;5601;44.490;11.400;2022-09-04T07:10:04;6.75;;;5.28;;
11094;SDS011;5601;44.490;11.400;2022-09-04T07:15:37;8.05;;;5.50;;
11094;SDS011;5601;44.490;11.400;2022-09-04T07:18:17;6.20;;;5.60;;
11094;SDS011;5601;44.490;11.400;2022-09-04T07:21:00;7.25;;;6.20;;
11094;SDS011;5601;44.490;11.400;2022-09-04T07:23:37;7.13;;;5.68;;
11094;SDS011;5601;44.490;11.400;2022-09-04T07:26:16;8.95;;;6.03;;
11094;SDS011;5601;44.490;11.400;2022-09-04T07:31:45;10.40;;;6.43;;
11094;SDS011;5601;44.490;11.400;2022-09-04T07:34:20;10.68;;;5.95;;
11094;SDS011;5601;44.490;11.400;2022-09-04T07:36:52;8.35;;;5.75;;
11094;SDS011;5601;44.490;11.400;2022-09-04T07:39:27;6.65;;;5.53;;
11094;SDS011;5601;44.490;11.400;2022-09-04T07:42:03;7.75;;;6.05;;
11094;SDS011;5601;44.490;11.400;2022-09-04T07:44:43;10.07;;;6.32;;
11094;SDS011;5601;44.490;11.400;2022-09-04T07:47:25;7.93;;;5.78;;
11094;SDS011;5601;44.490;11.400;2022-09-04T07:49:59;8.73;;;5.75;;
11094;SDS011;5601;44.490;11.400;2022-09-04T07:52:38;7.07;;;5.63;;
11094;SDS011;5601;44.490;11.400;2022-09-04T07:55:29;8.38;;;5.90;;
11094;SDS011;5601;44.490;11.400;2022-09-04T07:58:20;11.77;;;5.75;;
11094;SDS011;5601;44.490;11.400;2022-09-04T08:01:16;7.72;;;5.57;;
11094;SDS011;5601;44.490;11.400;2022-09-04T08:04:10;7.82;;;5.55;;
11094;SDS011;5601;44.490;11.400;2022-09-04T08:06:47;6.90;;;5.00;;
11094;SDS011;5601;44.490;11.400;2022-09-04T08:12:29;9.20;;;5.95;;
11094;SDS011;5601;44.490;11.400;2022-09-04T08:15:22;8.38;;;5.28;;
11094;SDS011;5601;44.490;11.400;2022-09-04T08:18:08;6.75;;;5.43;;
11094;SDS011;5601;44.490;11.400;2022-09-04T08:21:05;7.13;;;5.47;;
11094;SDS011;5601;44.490;11.400;2022-09-04T08:23:56;9.75;;;5.93;;
11094;SDS011;5601;44.490;11.400;2022-09-04T08:26:43;8.23;;;6.28;;
11094;SDS011;5601;44.490;11.400;2022-09-04T08:29:24;9.10;;;6.40;;
11094;SDS011;5601;44.490;11.400;2022-09-04T08:32:07;7.32;;;5.53;;
11094;SDS011;5601;44.490;11.400;2022-09-04T08:34:51;9.05;;;5.80;;
11094;SDS011;5601;44.490;11.400;2022-09-04T08:37:31;7.55;;;5.65;;
11094;SDS011;5601;44.490;11.400;2022-09-04T08:40:28;11.00;;;5.53;;
11094;SDS011;5601;44.490;11.400;2022-09-04T08:43:23;7.22;;;5.40;;
11094;SDS011;5601;44.490;11.400;2022-09-04T08:46:14;7.40;;;5.43;;
11094;SDS011;5601;44.490;11.400;2022-09-04T08:55:08;9.00;;;5.88;;
11094;SDS011;5601;44.490;11.400;2022-09-04T08:57:58;6.70;;;5.32;;
11094;SDS011;5601;44.490;11.400;2022-09-04T09:00:55;6.78;;;5.68;;
11094;SDS011;5601;44.490;11.400;2022-09-04T09:03:53;8.85;;;5.65;;
11094;SDS011;5601;44.490;11.400;2022-09-04T09:06:47;9.57;;;6.45;;
11094;SDS011;5601;44.490;11.400;2022-09-04T09:09:54;10.15;;;6.03;;
11094;SDS011;5601;44.490;11.400;2022-09-04T09:12:56;6.88;;;5.95;;
11094;SDS011;5601;44.490;11.400;2022-09-04T09:15:51;7.75;;;5.53;;
11094;SDS011;5601;44.490;11.400;2022-09-04T09:18:34;7.10;;;5.57;;
11094;SDS011;5601;44.490;11.400;2022-09-04T09:21:07;9.82;;;5.50;;
11094;SDS011;5601;44.490;11.400;2022-09-04T09:26:37;8.48;;;6.72;;
11094;SDS011;5601;44.490;11.400;2022-09-04T09:29:21;8.13;;;5.78;;
11094;SDS011;5601;44.490;11.400;2022-09-04T09:32:20;5.78;;;4.82;;
11094;SDS011;5601;44.490;11.400;2022-09-04T09:35:38;7.88;;;6.75;;
11094;SDS011;5601;44.490;11.400;2022-09-04T09:44:50;7.40;;;5.40;;
11094;SDS011;5601;44.490;11.400;2022-09-04T09:47:37;5.65;;;5.05;;
11094;SDS011;5601;44.490;11.400;2022-09-04T09:50:47;6.25;;;4.93;;
11094;SDS011;5601;44.490;11.400;2022-09-04T09:53:47;6.32;;;4.78;;
11094;SDS011;5601;44.490;11.400;2022-09-04T09:56:40;6.55;;;5.03;;
11094;SDS011;5601;44.490;11.400;2022-09-04T09:59:33;8.38;;;4.88;;
11094;SDS011;5601;44.490;11.400;2022-09-04T10:02:37;7.85;;;5.13;;
11094;SDS011;5601;44.490;11.400;2022-09-04T10:12:09;5.55;;;4.15;;
11094;SDS011;5601;44.490;11.400;2022-09-04T10:15:00;6.00;;;4.15;;
11094;SDS011;5601;44.490;11.400;2022-09-04T10:20:55;6.30;;;3.95;;
11094;SDS011;5601;44.490;11.400;2022-09-04T10:23:45;5.32;;;3.97;;
11094;SDS011;5601;44.490;11.400;2022-09-04T10:26:49;4.22;;;3.47;;
11094;SDS011;5601;44.490;11.400;2022-09-04T10:29:47;5.40;;;4.45;;
11094;SDS011;5601;44.490;11.400;2022-09-04T10:35:30;5.18;;;3.80;;
11094;SDS011;5601;44.490;11.400;2022-09-04T10:38:19;7.65;;;4.10;;
11094;SDS011;5601;44.490;11.400;2022-09-04T10:44:30;4.40;;;4.00;;
11094;SDS011;5601;44.490;11.400;2022-09-04T10:47:11;4.93;;;4.20;;
11094;SDS011;5601;44.490;11.400;2022-09-04T11:14:44;3.67;;;2.60;;
11094;SDS011;5601;44.490;11.400;2022-09-04T11:17:36;5.30;;;2.80;;
11094;SDS011;5601;44.490;11.400;2022-09-04T11:26:48;4.85;;;2.95;;
11094;SDS011;5601;44.490;11.400;2022-09-04T11:29:48;3.72;;;2.90;;
11094;SDS011;5601;44.490;11.400;2022-09-04T11:35:28;3.20;;;2.90;;
11094;SDS011;5601;44.490;11.400;2022-09-04T11:38:30;3.67;;;2.88;;
11094;SDS011;5601;44.490;11.400;2022-09-04T11:41:22;5.22;;;2.60;;
11094;SDS011;5601;44.490;11.400;2022-09-04T11:44:25;3.10;;;2.78;;
11094;SDS011;5601;44.490;11.400;2022-09-04T11:47:14;3.10;;;2.80;;
11094;SDS011;5601;44.490;11.400;2022-09-04T11:50:13;5.28;;;3.03;;
11094;SDS011;5601;44.490;11.400;2022-09-04T11:58:53;2.60;;;2.40;;
11094;SDS011;5601;44.490;11.400;2022-09-04T12:04:44;5.63;;;2.88;;
11094;SDS011;5601;44.490;11.400;2022-09-04T12:07:29;3.70;;;2.58;;
11094;SDS011;5601;44.490;11.400;2022-09-04T12:16:15;2.60;;;2.40;;
11094;SDS011;5601;44.490;11.400;2022-09-04T12:22:16;2.85;;;2.38;;
11094;SDS011;5601;44.490;11.400;2022-09-04T12:25:11;3.45;;;2.10;;
11094;SDS011;5601;44.490;11.400;2022-09-04T12:28:12;3.78;;;2.38;;
11094;SDS011;5601;44.490;11.400;2022-09-04T12:31:26;5.43;;;2.40;;
11094;SDS011;5601;44.490;11.400;2022-09-04T12:34:09;4.75;;;2.67;;
11094;SDS011;5601;44.490;11.400;2022-09-04T12:37:06;2.90;;;2.35;;
11094;SDS011;5601;44.490;11.400;2022-09-04T12:40:06;3.38;;;2.20;;
11094;SDS011;5601;44.490;11.400;2022-09-04T12:42:54;4.18;;;2.17;;
11094;SDS011;5601;44.490;11.400;2022-09-04T12:45:31;4.40;;;2.20;;
11094;SDS011;5601;44.490;11.400;2022-09-04T12:48:08;6.70;;;2.40;;
11094;SDS011;5601;44.490;11.400;2022-09-04T12:50:46;2.70;;;2.05;;
11094;SDS011;5601;44.490;11.400;2022-09-04T12:53:28;2.47;;;2.13;;
11094;SDS011;5601;44.490;11.400;2022-09-04T12:56:14;2.97;;;1.90;;
11094;SDS011;5601;44.490;11.400;2022-09-04T12:58:56;5.82;;;1.90;;
11094;SDS011;5601;44.490;11.400;2022-09-04T13:01:38;2.58;;;2.08;;
11094;SDS011;5601;44.490;11.400;2022-09-04T13:04:16;3.17;;;2.10;;
11094;SDS011;5601;44.490;11.400;2022-09-04T13:06:50;3.85;;;1.98;;
11094;SDS011;5601;44.490;11.400;2022-09-04T13:09:36;2.50;;;2.10;;
11094;SDS011;5601;44.490;11.400;2022-09-04T13:12:13;2.95;;;2.10;;
11094;SDS011;5601;44.490;11.400;2022-09-04T13:15:01;3.63;;;2.33;;
11094;SDS011;5601;44.490;11.400;2022-09-04T13:17:40;3.70;;;2.17;;
11094;SDS011;5601;44.490;11.400;2022-09-04T13:20:16;2.88;;;2.22;;
11094;SDS011;5601;44.490;11.400;2022-09-04T13:22:52;3.42;;;2.30;;
11094;SDS011;5601;44.490;11.400;2022-09-04T13:25:37;3.65;;;2.00;;
11094;SDS011;5601;44.490;11.400;2022-09-04T13:28:16;2.55;;;2.35;;
11094;SDS011;5601;44.490;11.400;2022-09-04T13:30:52;2.60;;;2.20;;
11094;SDS011;5601;44.490;11.400;2022-09-04T13:33:42;2.42;;;2.05;;
11094;SDS011;5601;44.490;11.400;2022-09-04T13:36:23;2.35;;;2.10;;
11094;SDS011;5601;44.490;11.400;2022-09-04T13:45:11;3.88;;;1.90;;
11094;SDS011;5601;44.490;11.400;2022-09-04T13:47:48;2.65;;;2.30;;
11094;SDS011;5601;44.490;11.400;2022-09-04T13:50:20;2.22;;;1.80;;
11094;SDS011;5601;44.490;11.400;2022-09-04T13:52:54;3.38;;;2.10;;
11094;SDS011;5601;44.490;11.400;2022-09-04T13:55:28;3.13;;;1.98;;
11094;SDS011;5601;44.490;11.400;2022-09-04T13:58:02;5.35;;;2.33;;
11094;SDS011;5601;44.490;11.400;2022-09-04T14:00:36;2.50;;;2.30;;
11094;SDS011;5601;44.490;11.400;2022-09-04T14:03:11;6.18;;;2.05;;
11094;SDS011;5601;44.490;11.400;2022-09-04T14:05:50;2.35;;;2.15;;
11094;SDS011;5601;44.490;11.400;2022-09-04T14:08:18;4.20;;;2.28;;
11094;SDS011;5601;44.490;11.400;2022-09-04T14:11:01;4.57;;;2.10;;
11094;SDS011;5601;44.490;11.400;2022-09-04T14:13:53;2.88;;;2.20;;
11094;SDS011;5601;44.490;11.400;2022-09-04T14:16:37;3.65;;;2.20;;
11094;SDS011;5601;44.490;11.400;2022-09-04T14:19:09;4.15;;;2.50;;
11094;SDS011;5601;44.490;11.400;2022-09-04T14:24:37;2.30;;;1.90;;
11094;SDS011;5601;44.490;11.400;2022-09-04T14:27:13;2.70;;;2.13;;
11094;SDS011;5601;44.490;11.400;2022-09-04T14:29:53;3.17;;;1.77;;
11094;SDS011;5601;44.490;11.400;2022-09-04T14:32:30;3.33;;;2.08;;
11094;SDS011;5601;44.490;11.400;2022-09-04T14:35:08;2.70;;;2.00;;
11094;SDS011;5601;44.490;11.400;2022-09-04T14:37:56;2.40;;;2.00;;
11094;SDS011;5601;44.490;11.400;2022-09-04T14:40:38;4.68;;;2.00;;
11094;SDS011;5601;44.490;11.400;2022-09-04T14:43:12;2.13;;;1.92;;
11094;SDS011;5601;44.490;11.400;2022-09-04T14:45:59;4.60;;;2.35;;
11094;SDS011;5601;44.490;11.400;2022-09-04T14:48:31;3.75;;;2.30;;
11094;SDS011;5601;44.490;11.400;2022-09-04T14:51:08;2.60;;;2.30;;
11094;SDS011;5601;44.490;11.400;2022-09-04T14:53:44;5.70;;;2.25;;
11094;SDS011;5601;44.490;11.400;2022-09-04T14:56:18;2.40;;;2.00;;
11094;SDS011;5601;44.490;11.400;2022-09-04T14:58:51;3.60;;;2.17;;
11094;SDS011;5601;44.490;11.400;2022-09-04T15:01:27;2.97;;;2.08;;
11094;SDS011;5601;44.490;11.400;2022-09-04T15:03:58;2.70;;;2.00;;
11094;SDS011;5601;44.490;11.400;2022-09-04T15:06:33;2.55;;;2.00;;
11094;SDS011;5601;44.490;11.400;2022-09-04T15:09:18;2.10;;;1.88;;
11094;SDS011;5601;44.490;11.400;2022-09-04T15:11:51;2.85;;;2.00;;
11094;SDS011;5601;44.490;11.400;2022-09-04T15:14:21;2.22;;;2.03;;
11094;SDS011;5601;44.490;11.400;2022-09-04T15:16:59;2.65;;;1.70;;
11094;SDS011;5601;44.490;11.400;2022-09-04T15:19:37;2.20;;;2.00;;
11094;SDS011;5601;44.490;11.400;2022-09-04T15:22:11;4.57;;;2.05;;
11094;SDS011;5601;44.490;11.400;2022-09-04T15:24:47;2.95;;;1.92;;
11094;SDS011;5601;44.490;11.400;2022-09-04T15:27:22;2.28;;;2.08;;
11094;SDS011;5601;44.490;11.400;2022-09-04T15:30:04;2.28;;;1.80;;
11094;SDS011;5601;44.490;11.400;2022-09-04T15:32:39;3.15;;;2.15;;
11094;SDS011;5601;44.490;11.400;2022-09-04T15:35:12;2.67;;;1.73;;
11094;SDS011;5601;44.490;11.400;2022-09-04T15:37:44;3.30;;;2.05;;
11094;SDS011;5601;44.490;11.400;2022-09-04T15:40:19;2.45;;;2.03;;
11094;SDS011;5601;44.490;11.400;2022-09-04T15:42:55;2.38;;;2.05;;
11094;SDS011;5601;44.490;11.400;2022-09-04T15:45:35;6.53;;;1.90;;
11094;SDS011;5601;44.490;11.400;2022-09-04T15:48:18;2.55;;;2.08;;
11094;SDS011;5601;44.490;11.400;2022-09-04T15:51:01;2.17;;;1.90;;
11094;SDS011;5601;44.490;11.400;2022-09-04T15:53:38;2.35;;;1.60;;
11094;SDS011;5601;44.490;11.400;2022-09-04T15:58:57;2.22;;;1.83;;
11094;SDS011;5601;44.490;11.400;2022-09-04T16:01:31;2.40;;;1.80;;
11094;SDS011;5601;44.490;11.400;2022-09-04T16:04:11;3.45;;;2.20;;
11094;SDS011;5601;44.490;11.400;2022-09-04T16:06:51;2.10;;;1.90;;
11094;SDS011;5601;44.490;11.400;2022-09-04T16:09:24;2.10;;;1.90;;
11094;SDS011;5601;44.490;11.400;2022-09-04T16:12:00;3.30;;;1.90;;
11094;SDS011;5601;44.490;11.400;2022-09-04T16:14:36;4.38;;;2.10;;
11094;SDS011;5601;44.490;11.400;2022-09-04T16:17:09;2.63;;;1.70;;
11094;SDS011;5601;44.490;11.400;2022-09-04T16:19:43;3.28;;;1.92;;
11094;SDS011;5601;44.490;11.400;2022-09-04T16:22:21;3.90;;;1.83;;
11094;SDS011;5601;44.490;11.400;2022-09-04T16:25:03;2.72;;;1.90;;
11094;SDS011;5601;44.490;11.400;2022-09-04T16:27:37;1.80;;;1.65;;
11094;SDS011;5601;44.490;11.400;2022-09-04T16:30:22;2.92;;;1.98;;
11094;SDS011;5601;44.490;11.400;2022-09-04T16:32:54;1.60;;;1.50;;
11094;SDS011;5601;44.490;11.400;2022-09-04T16:35:24;3.30;;;2.20;;
11094;SDS011;5601;44.490;11.400;2022-09-04T16:37:55;2.80;;;2.17;;
11094;SDS011;5601;44.490;11.400;2022-09-04T16:40:31;2.75;;;2.10;;
11094;SDS011;5601;44.490;11.400;2022-09-04T16:43:06;4.20;;;1.92;;
11094;SDS011;5601;44.490;11.400;2022-09-04T16:45:43;3.13;;;1.90;;
11094;SDS011;5601;44.490;11.400;2022-09-04T16:48:14;4.93;;;2.03;;
11094;SDS011;5601;44.490;11.400;2022-09-04T16:50:47;3.13;;;1.98;;
11094;SDS011;5601;44.490;11.400;2022-09-04T16:53:20;3.30;;;1.92;;
11094;SDS011;5601;44.490;11.400;2022-09-04T16:55:59;5.90;;;2.05;;
11094;SDS011;5601;44.490;11.400;2022-09-04T16:58:36;4.55;;;1.92;;
11094;SDS011;5601;44.490;11.400;2022-09-04T17:01:12;2.67;;;1.88;;
11094;SDS011;5601;44.490;11.400;2022-09-04T17:03:48;5.22;;;2.40;;
11094;SDS011;5601;44.490;11.400;2022-09-04T17:06:41;3.33;;;1.92;;
11094;SDS011;5601;44.490;11.400;2022-09-04T17:09:28;4.00;;;1.92;;
11094;SDS011;5601;44.490;11.400;2022-09-04T18:43:51;3.90;;;3.38;;
11094;SDS011;5601;44.490;11.400;2022-09-04T18:46:22;4.78;;;3.35;;
11094;SDS011;5601;44.490;11.400;2022-09-04T18:48:57;6.40;;;3.90;;
11094;SDS011;5601;44.490;11.400;2022-09-04T18:51:26;3.92;;;3.10;;
11094;SDS011;5601;44.490;11.400;2022-09-04T18:53:58;4.53;;;3.50;;
11094;SDS011;5601;44.490;11.400;2022-09-04T18:56:33;4.50;;;3.13;;
11094;SDS011;5601;44.490;11.400;2022-09-04T18:59:09;9.50;;;3.38;;
11094;SDS011;5601;44.490;11.400;2022-09-04T19:01:41;3.97;;;3.33;;
11094;SDS011;5601;44.490;11.400;2022-09-04T19:07:20;5.82;;;3.50;;
11094;SDS011;5601;44.490;11.400;2022-09-04T19:10:03;7.57;;;3.40;;
11094;SDS011;5601;44.490;11.400;2022-09-04T19:12:43;6.03;;;3.47;;
11094;SDS011;5601;44.490;11.400;2022-09-04T19:15:44;7.70;;;3.85;;
11094;SDS011;5601;44.490;11.400;2022-09-04T19:18:29;7.38;;;3.28;;
11094;SDS011;5601;44.490;11.400;2022-09-04T19:21:22;4.68;;;3.42;;
11094;SDS011;5601;44.490;11.400;2022-09-04T19:23:56;3.95;;;3.13;;
11094;SDS011;5601;44.490;11.400;2022-09-04T19:26:29;7.45;;;4.00;;
11094;SDS011;5601;44.490;11.400;2022-09-04T19:29:05;5.20;;;3.40;;
11094;SDS011;5601;44.490;11.400;2022-09-04T19:31:39;5.57;;;3.75;;
11094;SDS011;5601;44.490;11.400;2022-09-04T19:34:15;5.85;;;3.80;;
11094;SDS011;5601;44.490;11.400;2022-09-04T19:36:46;6.28;;;3.60;;
11094;SDS011;5601;44.490;11.400;2022-09-04T19:39:22;5.85;;;3.70;;
11094;SDS011;5601;44.490;11.400;2022-09-04T19:41:56;4.60;;;3.67;;
11094;SDS011;5601;44.490;11.400;2022-09-04T19:44:33;8.25;;;3.65;;
11094;SDS011;5601;44.490;11.400;2022-09-04T19:47:17;6.88;;;3.90;;
11094;SDS011;5601;44.490;11.400;2022-09-04T19:50:13;4.45;;;3.67;;
11094;SDS011;5601;44.490;11.400;2022-09-04T19:52:44;8.23;;;3.83;;
11094;SDS011;5601;44.490;11.400;2022-09-04T19:55:17;7.10;;;4.28;;
11094;SDS011;5601;44.490;11.400;2022-09-04T19:57:50;4.35;;;3.85;;
11094;SDS011;5601;44.490;11.400;2022-09-04T20:00:25;4.97;;;3.70;;
11094;SDS011;5601;44.490;11.400;2022-09-04T20:02:57;5.88;;;3.55;;
11094;SDS011;5601;44.490;11.400;2022-09-04T20:05:29;5.03;;;3.47;;
11094;SDS011;5601;44.490;11.400;2022-09-04T20:08:01;6.30;;;3.80;;
11094;SDS011;5601;44.490;11.400;2022-09-04T20:10:34;5.97;;;3.38;;
11094;SDS011;5601;44.490;11.400;2022-09-04T20:13:19;6.53;;;3.97;;
11094;SDS011;5601;44.490;11.400;2022-09-04T20:15:53;9.32;;;3.70;;
11094;SDS011;5601;44.490;11.400;2022-09-04T20:18:27;6.28;;;4.07;;
11094;SDS011;5601;44.490;11.400;2022-09-04T20:21:02;7.03;;;4.13;;
11094;SDS011;5601;44.490;11.400;2022-09-04T20:23:38;6.82;;;4.45;;
11094;SDS011;5601;44.490;11.400;2022-09-04T20:26:09;5.40;;;3.92;;
11094;SDS011;5601;44.490;11.400;2022-09-04T20:28:51;6.70;;;4.10;;
11094;SDS011;5601;44.490;11.400;2022-09-04T20:31:35;6.05;;;4.28;;
11094;SDS011;5601;44.490;11.400;2022-09-04T20:34:19;6.50;;;4.32;;
11094;SDS011;5601;44.490;11.400;2022-09-04T20:37:16;7.78;;;3.80;;
11094;SDS011;5601;44.490;11.400;2022-09-04T20:39:51;5.28;;;4.25;;
11094;SDS011;5601;44.490;11.400;2022-09-04T20:42:29;7.18;;;4.43;;
11094;SDS011;5601;44.490;11.400;2022-09-04T20:45:03;7.35;;;4.07;;
11094;SDS011;5601;44.490;11.400;2022-09-04T20:47:32;6.05;;;3.90;;
11094;SDS011;5601;44.490;11.400;2022-09-04T20:50:09;5.22;;;4.03;;
11094;SDS011;5601;44.490;11.400;2022-09-04T20:52:47;7.10;;;3.92;;
11094;SDS011;5601;44.490;11.400;2022-09-04T20:55:25;6.70;;;3.83;;
11094;SDS011;5601;44.490;11.400;2022-09-04T21:01:03;5.60;;;3.72;;
11094;SDS011;5601;44.490;11.400;2022-09-04T21:03:35;6.18;;;4.05;;
11094;SDS011;5601;44.490;11.400;2022-09-04T21:09:04;5.40;;;3.67;;
11094;SDS011;5601;44.490;11.400;2022-09-04T21:11:38;11.52;;;3.97;;
11094;SDS011;5601;44.490;11.400;2022-09-04T21:14:12;5.53;;;3.90;;
11094;SDS011;5601;44.490;11.400;2022-09-04T21:16:59;7.03;;;4.20;;
11094;SDS011;5601;44.490;11.400;2022-09-04T21:22:46;4.72;;;3.60;;
11094;SDS011;5601;44.490;11.400;2022-09-04T21:25:35;4.97;;;3.50;;
11094;SDS011;5601;44.490;11.400;2022-09-04T21:28:27;4.13;;;3.55;;
11094;SDS011;5601;44.490;11.400;2022-09-04T21:31:26;4.97;;;3.95;;
11094;SDS011;5601;44.490;11.400;2022-09-04T21:34:15;5.40;;;3.65;;
11094;SDS011;5601;44.490;11.400;2022-09-04T21:36:57;4.80;;;3.65;;
11094;SDS011;5601;44.490;11.400;2022-09-04T21:39:42;5.30;;;3.80;;
11094;SDS011;5601;44.490;11.400;2022-09-04T21:42:43;6.57;;;4.37;;
11094;SDS011;5601;44.490;11.400;2022-09-04T21:45:30;4.93;;;4.23;;
11094;SDS011;5601;44.490;11.400;2022-09-04T21:48:27;5.10;;;4.00;;
11094;SDS011;5601;44.490;11.400;2022-09-04T21:51:16;6.27;;;3.67;;
11094;SDS011;5601;44.490;11.400;2022-09-04T21:54:04;5.13;;;3.57;;
11094;SDS011;5601;44.490;11.400;2022-09-04T21:56:54;7.07;;;3.90;;
11094;SDS011;5601;44.490;11.400;2022-09-04T21:59:43;6.83;;;3.90;;
11094;SDS011;5601;44.490;11.400;2022-09-04T22:02:32;5.00;;;3.70;;
11094;SDS011;5601;44.490;11.400;2022-09-04T22:05:18;4.83;;;3.80;;
11094;SDS011;5601;44.490;11.400;2022-09-04T22:07:59;5.23;;;3.83;;
11094;SDS011;5601;44.490;11.400;2022-09-04T22:10:40;4.70;;;3.70;;
11094;SDS011;5601;44.490;11.400;2022-09-04T22:13:23;6.10;;;3.80;;
11094;SDS011;5601;44.490;11.400;2022-09-04T22:16:00;6.87;;;3.97;;
11094;SDS011;5601;44.490;11.400;2022-09-04T22:18:38;6.73;;;3.87;;
11094;SDS011;5601;44.490;11.400;2022-09-04T22:21:24;7.93;;;3.90;;
11094;SDS011;5601;44.490;11.400;2022-09-04T22:24:03;7.47;;;3.73;;
11094;SDS011;5601;44.490;11.400;2022-09-04T22:30:07;8.17;;;3.87;;
11094;SDS011;5601;44.490;11.400;2022-09-04T22:39:10;10.00;;;3.80;;
11094;SDS011;5601;44.490;11.400;2022-09-04T22:42:00;6.53;;;3.50;;
11094;SDS011;5601;44.490;11.400;2022-09-04T22:44:58;6.63;;;4.03;;
11094;SDS011;5601;44.490;11.400;2022-09-04T22:47:47;5.33;;;3.90;;
11094;SDS011;5601;44.490;11.400;2022-09-04T22:50:38;5.47;;;4.17;;
11094;SDS011;5601;44.490;11.400;2022-09-04T22:53:23;7.43;;;4.20;;
11094;SDS011;5601;44.490;11.400;2022-09-04T22:56:13;6.53;;;3.97;;
11094;SDS011;5601;44.490;11.400;2022-09-04T22:58:51;5.87;;;3.67;;
11094;SDS011;5601;44.490;11.400;2022-09-04T23:01:44;5.97;;;3.53;;
11094;SDS011;5601;44.490;11.400;2022-09-04T23:04:49;5.87;;;4.10;;
11094;SDS011;5601;44.490;11.400;2022-09-04T23:07:46;8.00;;;4.07;;
11094;SDS011;5601;44.490;11.400;2022-09-04T23:10:31;5.17;;;3.90;;
11094;SDS011;5601;44.490;11.400;2022-09-04T23:13:12;4.90;;;4.00;;
11094;SDS011;5601;44.490;11.400;2022-09-04T23:15:53;5.60;;;3.70;;
11094;SDS011;5601;44.490;11.400;2022-09-04T23:18:57;4.33;;;3.67;;
11094;SDS011;5601;44.490;11.400;2022-09-04T23:21:40;9.53;;;4.17;;
11094;SDS011;5601;44.490;11.400;2022-09-04T23:24:20;5.97;;;3.40;;
11094;SDS011;5601;44.490;11.400;2022-09-04T23:27:08;8.00;;;3.90;;
11094;SDS011;5601;44.490;11.400;2022-09-04T23:30:05;6.10;;;3.40;;
11094;SDS011;5601;44.490;11.400;2022-09-04T23:32:43;7.80;;;3.70;;
11094;SDS011;5601;44.490;11.400;2022-09-04T23:35:44;5.97;;;3.87;;
11094;SDS011;5601;44.490;11.400;2022-09-04T23:41:22;4.50;;;3.60;;
11094;SDS011;5601;44.490;11.400;2022-09-04T23:47:07;4.03;;;3.50;;
11094;SDS011;5601;44.490;11.400;2022-09-04T23:49:58;9.13;;;3.60;;
11094;SDS011;5601;44.490;11.400;2022-09-04T23:52:31;4.47;;;3.33;;
11094;SDS011;5601;44.490;11.400;2022-09-04T23:58:01;4.63;;;3.43;;
